Aviation Digital Data Service (ADDS)

Output produced by METARs form (2324 UTC 18 August 2019)
found at http://www.aviationweather.gov/metar/data/
 
METAR text: SYCJ 182300Z 09004KT 9999 TS FEW015CB 25/24 Q1014 CB SSE-S LTNG-S NOSIG
Conditions at: SYCJ (GEORGETOWN/TIMEH, GY) observed 2300 UTC 18 August 2019
Temperature: 25.0°C (77°F)
Dewpoint: 24.0°C (75°F) [RH = 94%]
Pressure (altimeter): 29.94 inches Hg (1014.0 mb)
Winds: from the E (90 degrees) at 5 MPH (4 knots; 2.1 m/s)
Visibility: 6 or more miles (10+ km)
Ceiling: at least 12,000 feet AGL
Clouds: few clouds at 1500 feet AGL
Weather: TS SS  (thunderstorm, sandstorm)

METAR text: SYCJ 182200Z 04004KT 9999 FEW017CB SCT018 26/25 Q1013 CB SSE-S NOSIG
Conditions at: SYCJ (GEORGETOWN/TIMEH, GY) observed 2200 UTC 18 August 2019
Temperature: 26.0°C (79°F)
Dewpoint: 25.0°C (77°F) [RH = 94%]
Pressure (altimeter): 29.91 inches Hg (1013.0 mb)
Winds: from the NE (40 degrees) at 5 MPH (4 knots; 2.1 m/s)
Visibility: 6 or more miles (10+ km)
Ceiling: at least 12,000 feet AGL
Clouds: few clouds at 1700 feet AGL
scattered clouds at 1800 feet AGL
Weather: SS  (sandstorm)

METAR text: SYCJ 182100Z 03010KT 9999 -SHRA SCT017 SCT036 27/24 Q1013 NOSIG
Conditions at: SYCJ (GEORGETOWN/TIMEH, GY) observed 2100 UTC 18 August 2019
Temperature: 27.0°C (81°F)
Dewpoint: 24.0°C (75°F) [RH = 84%]
Pressure (altimeter): 29.91 inches Hg (1013.0 mb)
Winds: from the NNE (30 degrees) at 12 MPH (10 knots; 5.1 m/s)
Visibility: 6 or more miles (10+ km)
Ceiling: at least 12,000 feet AGL
Clouds: scattered clouds at 1700 feet AGL
scattered clouds at 3600 feet AGL
Weather: -SHRA  (light rain showers)

METAR text: SYCJ 182000Z 36006KT 9999 FEW016CB SCT017 30/24 Q1012 CB-N NOSIG
Conditions at: SYCJ (GEORGETOWN/TIMEH, GY) observed 2000 UTC 18 August 2019
Temperature: 30.0°C (86°F)
Dewpoint: 24.0°C (75°F) [RH = 70%]
Pressure (altimeter): 29.88 inches Hg (1012.0 mb)
Winds: from the N (360 degrees) at 7 MPH (6 knots; 3.1 m/s)
Visibility: 6 or more miles (10+ km)
Ceiling: at least 12,000 feet AGL
Clouds: few clouds at 1600 feet AGL
scattered clouds at 1700 feet AGL
Weather: no significant weather observed at this time

METAR text: SYCJ 181900Z 31004KT 9999 FEW016CB SCT017 BKN080 29/24 Q1013 CB-N NOSIG
Conditions at: SYCJ (GEORGETOWN/TIMEH, GY) observed 1900 UTC 18 August 2019
Temperature: 29.0°C (84°F)
Dewpoint: 24.0°C (75°F) [RH = 74%]
Pressure (altimeter): 29.91 inches Hg (1013.0 mb)
Winds: from the NW (310 degrees) at 5 MPH (4 knots; 2.1 m/s)
Visibility: 6 or more miles (10+ km)
Ceiling: 8000 feet AGL
Clouds: few clouds at 1600 feet AGL
scattered clouds at 1700 feet AGL
broken clouds at 8000 feet AGL
Weather: no significant weather observed at this time

METAR text: SYCJ 181800Z VRB02KT 9999 FEW016CB SCT017 BKN080 28/24 Q1014 CB-N NOSIG
Conditions at: SYCJ (GEORGETOWN/TIMEH, GY) observed 1800 UTC 18 August 2019
Temperature: 28.0°C (82°F)
Dewpoint: 24.0°C (75°F) [RH = 79%]
Pressure (altimeter): 29.94 inches Hg (1014.0 mb)
Winds: variable direction winds at 2 MPH (2 knots; 1.0 m/s)
Visibility: 6 or more miles (10+ km)
Ceiling: 8000 feet AGL
Clouds: few clouds at 1600 feet AGL
scattered clouds at 1700 feet AGL
broken clouds at 8000 feet AGL
Weather: no significant weather observed at this time

METAR text: SYCJ 181700Z VRB02KT 9999 FEW015CB SCT016 OVC070 28/25 Q1015 CB ALQDS NOSIG
Conditions at: SYCJ (GEORGETOWN/TIMEH, GY) observed 1700 UTC 18 August 2019
Temperature: 28.0°C (82°F)
Dewpoint: 25.0°C (77°F) [RH = 84%]
Pressure (altimeter): 29.97 inches Hg (1015.0 mb)
Winds: variable direction winds at 2 MPH (2 knots; 1.0 m/s)
Visibility: 6 or more miles (10+ km)
Ceiling: 7000 feet AGL
Clouds: few clouds at 1500 feet AGL
scattered clouds at 1600 feet AGL
overcast cloud deck at 7000 feet AGL
Weather: no significant weather observed at this time

METAR text: SYCJ 181600Z 33004KT 9999 -SHRA FEW015CB SCT033 OVC070 25/24 Q1016 CB ALQDS NOSIG
Conditions at: SYCJ (GEORGETOWN/TIMEH, GY) observed 1600 UTC 18 August 2019
Temperature: 25.0°C (77°F)
Dewpoint: 24.0°C (75°F) [RH = 94%]
Pressure (altimeter): 30.00 inches Hg (1016.0 mb)
Winds: from the NNW (330 degrees) at 5 MPH (4 knots; 2.1 m/s)
Visibility: 6 or more miles (10+ km)
Ceiling: 7000 feet AGL
Clouds: few clouds at 1500 feet AGL
scattered clouds at 3300 feet AGL
overcast cloud deck at 7000 feet AGL
Weather: -SHRA  (light rain showers)

METAR text: SYCJ 181500Z 35006KT 9999 FEW014CB SCT033 OVC070 26/24 Q1017 CB ALQDS NOSIG
Conditions at: SYCJ (GEORGETOWN/TIMEH, GY) observed 1500 UTC 18 August 2019
Temperature: 26.0°C (79°F)
Dewpoint: 24.0°C (75°F) [RH = 89%]
Pressure (altimeter): 30.03 inches Hg (1017.0 mb)
Winds: from the N (350 degrees) at 7 MPH (6 knots; 3.1 m/s)
Visibility: 6 or more miles (10+ km)
Ceiling: 7000 feet AGL
Clouds: few clouds at 1400 feet AGL
scattered clouds at 3300 feet AGL
overcast cloud deck at 7000 feet AGL
Weather: no significant weather observed at this time

METAR text: SYCJ 181400Z 31004KT 9000 -RA FEW014CB SCT033 OVC070 25/24 Q1016 CB ALQDS NOSIG
Conditions at: SYCJ (GEORGETOWN/TIMEH, GY) observed 1400 UTC 18 August 2019
Temperature: 25.0°C (77°F)
Dewpoint: 24.0°C (75°F) [RH = 94%]
Pressure (altimeter): 30.00 inches Hg (1016.0 mb)
Winds: from the NW (310 degrees) at 5 MPH (4 knots; 2.1 m/s)
Visibility: 6 miles ( 9 km)
Ceiling: 7000 feet AGL
Clouds: few clouds at 1400 feet AGL
scattered clouds at 3300 feet AGL
overcast cloud deck at 7000 feet AGL
Weather: -RA  (light rain)

METAR text: SYCJ 181300Z VRB02KT 9000 -RA FEW014CB BKN033 OVC070 24/23 Q1016 CB ALQDS NOSIG
Conditions at: SYCJ (GEORGETOWN/TIMEH, GY) observed 1300 UTC 18 August 2019
Temperature: 24.0°C (75°F)
Dewpoint: 23.0°C (73°F) [RH = 94%]
Pressure (altimeter): 30.00 inches Hg (1016.0 mb)
Winds: variable direction winds at 2 MPH (2 knots; 1.0 m/s)
Visibility: 6 miles ( 9 km)
Ceiling: 3300 feet AGL
Clouds: few clouds at 1400 feet AGL
broken clouds at 3300 feet AGL
overcast cloud deck at 7000 feet AGL
Weather: -RA  (light rain)

METAR text: SYCJ 181200Z VRB02KT 7000 -RA FEW014CB BKN033 OVC070 23/23 Q1016 CB ALQDS NOSIG
Conditions at: SYCJ (GEORGETOWN/TIMEH, GY) observed 1200 UTC 18 August 2019
Temperature: 23.0°C (73°F)
Dewpoint: 23.0°C (73°F) [RH = 100%]
Pressure (altimeter): 30.00 inches Hg (1016.0 mb)
Winds: variable direction winds at 2 MPH (2 knots; 1.0 m/s)
Visibility: 4 miles ( 7 km)
Ceiling: 3300 feet AGL
Clouds: few clouds at 1400 feet AGL
broken clouds at 3300 feet AGL
overcast cloud deck at 7000 feet AGL
Weather: -RA  (light rain)

METAR text: SYCJ 181100Z VRB02KT 7000 -RA FEW014CB BKN033 OVC070 23/22 Q1015 CB ALQDS NOSIG
Conditions at: SYCJ (GEORGETOWN/TIMEH, GY) observed 1100 UTC 18 August 2019
Temperature: 23.0°C (73°F)
Dewpoint: 22.0°C (72°F) [RH = 94%]
Pressure (altimeter): 29.97 inches Hg (1015.0 mb)
Winds: variable direction winds at 2 MPH (2 knots; 1.0 m/s)
Visibility: 4 miles ( 7 km)
Ceiling: 3300 feet AGL
Clouds: few clouds at 1400 feet AGL
broken clouds at 3300 feet AGL
overcast cloud deck at 7000 feet AGL
Weather: -RA  (light rain)

METAR text: SYCJ 181000Z 13004KT 9999 -RA FEW015CB BKN033 BKN080 23/22 Q1015 CB ALQDS NOSIG
Conditions at: SYCJ (GEORGETOWN/TIMEH, GY) observed 1000 UTC 18 August 2019
Temperature: 23.0°C (73°F)
Dewpoint: 22.0°C (72°F) [RH = 94%]
Pressure (altimeter): 29.97 inches Hg (1015.0 mb)
Winds: from the SE (130 degrees) at 5 MPH (4 knots; 2.1 m/s)
Visibility: 6 or more miles (10+ km)
Ceiling: 3300 feet AGL
Clouds: few clouds at 1500 feet AGL
broken clouds at 3300 feet AGL
broken clouds at 8000 feet AGL
Weather: -RA  (light rain)

METAR text: SYCJ 180900Z 18006KT 8000 -SHRA FEW015CB BKN033 24/23 Q1015 RETS CB ALQDS NOSIG
Conditions at: SYCJ (GEORGETOWN/TIMEH, GY) observed 0900 UTC 18 August 2019
Temperature: 24.0°C (75°F)
Dewpoint: 23.0°C (73°F) [RH = 94%]
Pressure (altimeter): 29.97 inches Hg (1015.0 mb)
Winds: from the S (180 degrees) at 7 MPH (6 knots; 3.1 m/s)
Visibility: 5 miles ( 8 km)
Ceiling: 3300 feet AGL
Clouds: few clouds at 1500 feet AGL
broken clouds at 3300 feet AGL
Weather: -SHRA  (light rain showers)

METAR text: SYCJ 180800Z 160010KT 6000 -TSRA FEW015CB SCT016 BKN033 24/24 Q1014 CB ALQDS NOSIG
Conditions at: SYCJ (GEORGETOWN/TIMEH, GY) observed 0800 UTC 18 August 2019
Temperature: 24.0°C (75°F)
Dewpoint: 24.0°C (75°F) [RH = 100%]
Pressure (altimeter): 29.94 inches Hg (1014.0 mb)
Winds: from the SSE (160 degrees) at 12 MPH (10 knots; 5.1 m/s)
Visibility: 4 miles ( 6 km)
Ceiling: 3300 feet AGL
Clouds: few clouds at 1500 feet AGL
scattered clouds at 1600 feet AGL
broken clouds at 3300 feet AGL
Weather: -TSRA  (light rain associated with thunderstorm(s))

METAR text: SYCJ 180700Z 18006KT 140V210 9999 TS FEW015CB SCT016 BKN033 24/24 Q1014 CB SE-W NOSIG
Conditions at: SYCJ (GEORGETOWN/TIMEH, GY) observed 0700 UTC 18 August 2019
Temperature: 24.0°C (75°F)
Dewpoint: 24.0°C (75°F) [RH = 100%]
Pressure (altimeter): 29.94 inches Hg (1014.0 mb)
Winds: from the S (180 degrees) at 7 MPH (6 knots; 3.1 m/s)
Visibility: 6 or more miles (10+ km)
Ceiling: 3300 feet AGL
Clouds: few clouds at 1500 feet AGL
scattered clouds at 1600 feet AGL
broken clouds at 3300 feet AGL
Weather: TS  (thunderstorm)

METAR text: SYCJ 180600Z 20004KT 9999 -SHRA SCT016 BKN034 24/24 Q1014 NOSIG
Conditions at: SYCJ (GEORGETOWN/TIMEH, GY) observed 0600 UTC 18 August 2019
Temperature: 24.0°C (75°F)
Dewpoint: 24.0°C (75°F) [RH = 100%]
Pressure (altimeter): 29.94 inches Hg (1014.0 mb)
Winds: from the SSW (200 degrees) at 5 MPH (4 knots; 2.1 m/s)
Visibility: 6 or more miles (10+ km)
Ceiling: 3400 feet AGL
Clouds: scattered clouds at 1600 feet AGL
broken clouds at 3400 feet AGL
Weather: -SHRA  (light rain showers)

METAR text: SYCJ 180500Z VRB02KT 9999 FEW016 BKN034 24/24 Q1014 NOSIG
Conditions at: SYCJ (GEORGETOWN/TIMEH, GY) observed 0500 UTC 18 August 2019
Temperature: 24.0°C (75°F)
Dewpoint: 24.0°C (75°F) [RH = 100%]
Pressure (altimeter): 29.94 inches Hg (1014.0 mb)
Winds: variable direction winds at 2 MPH (2 knots; 1.0 m/s)
Visibility: 6 or more miles (10+ km)
Ceiling: 3400 feet AGL
Clouds: few clouds at 1600 feet AGL
broken clouds at 3400 feet AGL
Weather: no significant weather observed at this time

METAR text: SYCJ 180400Z 13004KT 9999 FEW016 25/24 Q1014 NOSIG
Conditions at: SYCJ (GEORGETOWN/TIMEH, GY) observed 0400 UTC 18 August 2019
Temperature: 25.0°C (77°F)
Dewpoint: 24.0°C (75°F) [RH = 94%]
Pressure (altimeter): 29.94 inches Hg (1014.0 mb)
Winds: from the SE (130 degrees) at 5 MPH (4 knots; 2.1 m/s)
Visibility: 6 or more miles (10+ km)
Ceiling: at least 12,000 feet AGL
Clouds: few clouds at 1600 feet AGL
Weather: no significant weather observed at this time

METAR text: SYCJ 180300Z VRB02KT 9999 FEW016 SCT035 25/24 Q1015 NOSIG
Conditions at: SYCJ (GEORGETOWN/TIMEH, GY) observed 0300 UTC 18 August 2019
Temperature: 25.0°C (77°F)
Dewpoint: 24.0°C (75°F) [RH = 94%]
Pressure (altimeter): 29.97 inches Hg (1015.0 mb)
Winds: variable direction winds at 2 MPH (2 knots; 1.0 m/s)
Visibility: 6 or more miles (10+ km)
Ceiling: at least 12,000 feet AGL
Clouds: few clouds at 1600 feet AGL
scattered clouds at 3500 feet AGL
Weather: no significant weather observed at this time

METAR text: SYCJ 180200Z 04004KT CAVOK 25/24 Q1014 NOSIG
Conditions at: SYCJ (GEORGETOWN/TIMEH, GY) observed 0200 UTC 18 August 2019
Temperature: 25.0°C (77°F)
Dewpoint: 24.0°C (75°F) [RH = 94%]
Pressure (altimeter): 29.94 inches Hg (1014.0 mb)
Winds: from the NE (40 degrees) at 5 MPH (4 knots; 2.1 m/s)
Visibility: 6 or more miles (10+ km)
Ceiling: ceiling and visibility are OK
Clouds: unknown
Weather: no significant weather observed at this time

METAR text: SYCJ 180100Z 36004KT CAVOK 25/24 Q1014 NOSIG
Conditions at: SYCJ (GEORGETOWN/TIMEH, GY) observed 0100 UTC 18 August 2019
Temperature: 25.0°C (77°F)
Dewpoint: 24.0°C (75°F) [RH = 94%]
Pressure (altimeter): 29.94 inches Hg (1014.0 mb)
Winds: from the N (360 degrees) at 5 MPH (4 knots; 2.1 m/s)
Visibility: 6 or more miles (10+ km)
Ceiling: ceiling and visibility are OK
Clouds: unknown
Weather: no significant weather observed at this time

METAR text: SYCJ 180000Z 02006KT CAVOK 25/24 Q1013 NOSIG
Conditions at: SYCJ (GEORGETOWN/TIMEH, GY) observed 0000 UTC 18 August 2019
Temperature: 25.0°C (77°F)
Dewpoint: 24.0°C (75°F) [RH = 94%]
Pressure (altimeter): 29.91 inches Hg (1013.0 mb)
Winds: from the NNE (20 degrees) at 7 MPH (6 knots; 3.1 m/s)
Visibility: 6 or more miles (10+ km)
Ceiling: ceiling and visibility are OK
Clouds: unknown
Weather: no significant weather observed at this time

METAR text: SYCJ 172300Z 02004KT 9999 FEW018 26/24 Q1013 NOSIG
Conditions at: SYCJ (GEORGETOWN/TIMEH, GY) observed 2300 UTC 17 August 2019
Temperature: 26.0°C (79°F)
Dewpoint: 24.0°C (75°F) [RH = 89%]
Pressure (altimeter): 29.91 inches Hg (1013.0 mb)
Winds: from the NNE (20 degrees) at 5 MPH (4 knots; 2.1 m/s)
Visibility: 6 or more miles (10+ km)
Ceiling: at least 12,000 feet AGL
Clouds: few clouds at 1800 feet AGL
Weather: no significant weather observed at this time

METAR text: SYCJ 172200Z 05010KT 9999 FEW018 27/24 Q1012 NOSIG
Conditions at: SYCJ (GEORGETOWN/TIMEH, GY) observed 2200 UTC 17 August 2019
Temperature: 27.0°C (81°F)
Dewpoint: 24.0°C (75°F) [RH = 84%]
Pressure (altimeter): 29.88 inches Hg (1012.0 mb)
Winds: from the NE (50 degrees) at 12 MPH (10 knots; 5.1 m/s)
Visibility: 6 or more miles (10+ km)
Ceiling: at least 12,000 feet AGL
Clouds: few clouds at 1800 feet AGL
Weather: no significant weather observed at this time

METAR text: SYCJ 172100Z 29004KT 9999 SCT018 28/25 Q1011 NOSIG
Conditions at: SYCJ (GEORGETOWN/TIMEH, GY) observed 2100 UTC 17 August 2019
Temperature: 28.0°C (82°F)
Dewpoint: 25.0°C (77°F) [RH = 84%]
Pressure (altimeter): 29.85 inches Hg (1011.0 mb)
Winds: from the WNW (290 degrees) at 5 MPH (4 knots; 2.1 m/s)
Visibility: 6 or more miles (10+ km)
Ceiling: at least 12,000 feet AGL
Clouds: scattered clouds at 1800 feet AGL
Weather: no significant weather observed at this time

METAR text: SYCJ 172000Z 32006KT 9999 VCSH FEW019CB SCT020 30/25 Q1012 CB SW / VCSH E-SE NOSIG
Conditions at: SYCJ (GEORGETOWN/TIMEH, GY) observed 2000 UTC 17 August 2019
Temperature: 30.0°C (86°F)
Dewpoint: 25.0°C (77°F) [RH = 75%]
Pressure (altimeter): 29.88 inches Hg (1012.0 mb)
Winds: from the NW (320 degrees) at 7 MPH (6 knots; 3.1 m/s)
Visibility: 6 or more miles (10+ km)
Ceiling: at least 12,000 feet AGL
Clouds: few clouds at 1900 feet AGL
scattered clouds at 2000 feet AGL
Weather: VCSH VCSH  (showers in vicinity, showers in vicinity)

METAR text: SYCJ 171900Z 31008KT 9999 FEW018CB SCT019 28/25 Q1011 CB WSW-WNW NOSIG
Conditions at: SYCJ (GEORGETOWN/TIMEH, GY) observed 1900 UTC 17 August 2019
Temperature: 28.0°C (82°F)
Dewpoint: 25.0°C (77°F) [RH = 84%]
Pressure (altimeter): 29.85 inches Hg (1011.0 mb)
Winds: from the NW (310 degrees) at 9 MPH (8 knots; 4.1 m/s)
Visibility: 6 or more miles (10+ km)
Ceiling: at least 12,000 feet AGL
Clouds: few clouds at 1800 feet AGL
scattered clouds at 1900 feet AGL
Weather: no significant weather observed at this time

METAR text: SYCJ 171800Z 32008KT 9999 FEW017CB SCT018 27/25 Q1013 RETS CB WSW-WNW NOSIG
Conditions at: SYCJ (GEORGETOWN/TIMEH, GY) observed 1800 UTC 17 August 2019
Temperature: 27.0°C (81°F)
Dewpoint: 25.0°C (77°F) [RH = 89%]
Pressure (altimeter): 29.91 inches Hg (1013.0 mb)
Winds: from the NW (320 degrees) at 9 MPH (8 knots; 4.1 m/s)
Visibility: 6 or more miles (10+ km)
Ceiling: at least 12,000 feet AGL
Clouds: few clouds at 1700 feet AGL
scattered clouds at 1800 feet AGL
Weather: no significant weather observed at this time

METAR text: SYCJ 171700Z 04006KT 360V080 9999 TS FEW018CB BKN019 30/25 Q1013 CB W-NW NOSIG
Conditions at: SYCJ (GEORGETOWN/TIMEH, GY) observed 1700 UTC 17 August 2019
Temperature: 30.0°C (86°F)
Dewpoint: 25.0°C (77°F) [RH = 75%]
Pressure (altimeter): 29.91 inches Hg (1013.0 mb)
Winds: from the NE (40 degrees) at 7 MPH (6 knots; 3.1 m/s)
Visibility: 6 or more miles (10+ km)
Ceiling: 1900 feet AGL
Clouds: few clouds at 1800 feet AGL
broken clouds at 1900 feet AGL
Weather: TS  (thunderstorm)

METAR text: SYCJ 171630Z 06008KT 040V100 9999 TS FEW019CB SCT020 BKN080 29/24 Q1013 CB NW / N NOSIG
Conditions at: SYCJ (GEORGETOWN/TIMEH, GY) observed 1630 UTC 17 August 2019
Temperature: 29.0°C (84°F)
Dewpoint: 24.0°C (75°F) [RH = 74%]
Pressure (altimeter): 29.91 inches Hg (1013.0 mb)
Winds: from the ENE (60 degrees) at 9 MPH (8 knots; 4.1 m/s)
Visibility: 6 or more miles (10+ km)
Ceiling: 8000 feet AGL
Clouds: few clouds at 1900 feet AGL
scattered clouds at 2000 feet AGL
broken clouds at 8000 feet AGL
Weather: TS  (thunderstorm)

METAR text: SYCJ 171600Z 16004KT 090V200 9999 BKN020 SCT080 31/24 Q1014 NOSIG
Conditions at: SYCJ (GEORGETOWN/TIMEH, GY) observed 1600 UTC 17 August 2019
Temperature: 31.0°C (88°F)
Dewpoint: 24.0°C (75°F) [RH = 66%]
Pressure (altimeter): 29.94 inches Hg (1014.0 mb)
Winds: from the SSE (160 degrees) at 5 MPH (4 knots; 2.1 m/s)
Visibility: 6 or more miles (10+ km)
Ceiling: 2000 feet AGL
Clouds: broken clouds at 2000 feet AGL
scattered clouds at 8000 feet AGL
Weather: no significant weather observed at this time

METAR text: SYCJ 171500Z 10006KT 070V170 9999 SCT020 SCT090 30/25 Q1015 NOSIG
Conditions at: SYCJ (GEORGETOWN/TIMEH, GY) observed 1500 UTC 17 August 2019
Temperature: 30.0°C (86°F)
Dewpoint: 25.0°C (77°F) [RH = 75%]
Pressure (altimeter): 29.97 inches Hg (1015.0 mb)
Winds: from the E (100 degrees) at 7 MPH (6 knots; 3.1 m/s)
Visibility: 6 or more miles (10+ km)
Ceiling: at least 12,000 feet AGL
Clouds: scattered clouds at 2000 feet AGL
scattered clouds at 9000 feet AGL
Weather: no significant weather observed at this time

METAR text: SYCJ 171400Z 15006KT 120V200 9999 BKN019 SCT090 29/24 Q1015 NOSIG
Conditions at: SYCJ (GEORGETOWN/TIMEH, GY) observed 1400 UTC 17 August 2019
Temperature: 29.0°C (84°F)
Dewpoint: 24.0°C (75°F) [RH = 74%]
Pressure (altimeter): 29.97 inches Hg (1015.0 mb)
Winds: from the SSE (150 degrees) at 7 MPH (6 knots; 3.1 m/s)
Visibility: 6 or more miles (10+ km)
Ceiling: 1900 feet AGL
Clouds: broken clouds at 1900 feet AGL
scattered clouds at 9000 feet AGL
Weather: no significant weather observed at this time

METAR text: SYCJ 171300Z 23004KT 180V280 9999 SCT017 27/24 Q1015 NOSIG
Conditions at: SYCJ (GEORGETOWN/TIMEH, GY) observed 1300 UTC 17 August 2019
Temperature: 27.0°C (81°F)
Dewpoint: 24.0°C (75°F) [RH = 84%]
Pressure (altimeter): 29.97 inches Hg (1015.0 mb)
Winds: from the SW (230 degrees) at 5 MPH (4 knots; 2.1 m/s)
Visibility: 6 or more miles (10+ km)
Ceiling: at least 12,000 feet AGL
Clouds: scattered clouds at 1700 feet AGL
Weather: no significant weather observed at this time

METAR text: SYCJ 171200Z 27004KT 9999 FEW015 SCT034 24/23 Q1015 NOSIG
Conditions at: SYCJ (GEORGETOWN/TIMEH, GY) observed 1200 UTC 17 August 2019
Temperature: 24.0°C (75°F)
Dewpoint: 23.0°C (73°F) [RH = 94%]
Pressure (altimeter): 29.97 inches Hg (1015.0 mb)
Winds: from the W (270 degrees) at 5 MPH (4 knots; 2.1 m/s)
Visibility: 6 or more miles (10+ km)
Ceiling: at least 12,000 feet AGL
Clouds: few clouds at 1500 feet AGL
scattered clouds at 3400 feet AGL
Weather: no significant weather observed at this time

Forecast for: SYCJ (GEORGETOWN/TIMEH, GY)
Text: TAF SYCJ 181700Z 1818/1918 06008KT 9999 FEW012CB SCT022 BKN090
Forecast period: 1800 to 2200 UTC 18 August 2019
Forecast type: FROM: standard forecast or significant change
Winds: from the ENE (60 degrees) at 9 MPH (8 knots; 4.1 m/s)
Visibility: 6 or more miles 10+ km)
Ceiling: 9000 feet AGL
Clouds: few clouds at 1200 feet AGL
scattered clouds at 2200 feet AGL
broken clouds at 9000 feet AGL
Weather: no significant weather forecast for this period
Text: BECMG 1822/1900 VRB02KT 9999 SCT013 SCT035
Forecast period: 2200 UTC 18 August 2019 to 1100 UTC 19 August 2019
Forecast type: BECOMING: Conditions expected to become as follows by 0000 UTC 19 August 2019
Winds: variable direction winds at 2 MPH (2 knots; 1.0 m/s)
Visibility: 6 or more miles 10+ km)
Ceiling: at least 12,000 feet AGL
Clouds: scattered clouds at 1300 feet AGL
scattered clouds at 3500 feet AGL
Weather: no significant weather forecast for this period
Text: TEMPO 1906/1911 5000 SHRA RA BKN034
Forecast period: 0600 to 1100 UTC 19 August 2019
Forecast type: TEMPORARY: The following changes expected for less than half the time period
Visibility: 3 miles (5 km)
Ceiling: 3400 feet AGL
Clouds: broken clouds at 3400 feet AGL
Weather: SHRA RA  (rain showers, moderate rain)
Text: BECMG 1911/1913 07010KT 9999 BKN018 SCT037
Forecast period: 1100 to 1800 UTC 19 August 2019
Forecast type: BECOMING: Conditions expected to become as follows by 1300 UTC 19 August 2019
Winds: from the ENE (70 degrees) at 12 MPH (10 knots; 5.1 m/s)
Visibility: 6 or more miles 10+ km)
Ceiling: 1800 feet AGL
Clouds: broken clouds at 1800 feet AGL
scattered clouds at 3700 feet AGL
Weather: no significant weather forecast for this period